Time;durP1;ratioP1;P1;durP2;ratioP2;P2;SDS_P1;SDS_P2;PMS_P1;PMS_P2;Temp;Humidity;BMP_temperature;BMP_pressure;BME280_temperature;BME280_humidity;BME280_pressure;Samples;Min_cycle;Max_cycle;Signal;HPM_P1;HPM_P2
2021/08/03 00:01:05;;;;;;;3.13;2.70;;;12.40;99.90;;;;;;5046586;28;20194;-70
2021/08/03 00:03:49;;;;;;;3.00;2.80;;;12.40;99.90;;;;;;5048454;28;20791;-71
2021/08/03 00:06:16;;;;;;;2.83;2.13;;;12.30;99.90;;;;;;5036791;28;20218;-70
2021/08/03 00:08:51;;;;;;;2.80;2.60;;;12.40;99.90;;;;;;5044781;28;20554;-72
2021/08/03 00:11:17;;;;;;;2.90;2.70;;;12.20;99.90;;;;;;5039985;28;20263;-71
2021/08/03 00:13:43;;;;;;;3.47;3.00;;;12.30;99.90;;;;;;5040761;28;20183;-70
2021/08/03 00:16:10;;;;;;;4.22;3.22;;;12.40;99.90;;;;;;5045453;28;20667;-72
2021/08/03 00:18:38;;;;;;;4.72;3.05;;;12.50;99.90;;;;;;5036550;28;20195;-72
2021/08/03 00:21:04;;;;;;;3.20;2.90;;;12.60;99.90;;;;;;5040883;28;20201;-71
2021/08/03 00:23:31;;;;;;;2.80;2.60;;;12.70;99.90;;;;;;5039471;28;20208;-72
2021/08/03 00:25:57;;;;;;;3.30;3.00;;;12.60;99.90;;;;;;5046272;28;20704;-72
2021/08/03 00:28:23;;;;;;;3.25;2.90;;;12.70;99.90;;;;;;5037631;28;20457;-70
2021/08/03 00:30:50;;;;;;;3.43;3.13;;;12.60;99.90;;;;;;5046107;28;20237;-71
2021/08/03 00:33:17;;;;;;;2.90;2.70;;;12.60;99.90;;;;;;5048650;28;20297;-72
2021/08/03 00:35:42;;;;;;;2.83;2.50;;;12.90;99.90;;;;;;5034736;28;20798;-70
2021/08/03 00:38:08;;;;;;;2.70;2.50;;;13.10;99.90;;;;;;5045312;28;20201;-71
2021/08/03 00:40:40;;;;;;;3.53;2.70;;;12.70;99.90;;;;;;5043822;28;20273;-70
2021/08/03 00:43:05;;;;;;;3.17;2.97;;;12.60;99.90;;;;;;5040538;28;20665;-72
2021/08/03 00:45:31;;;;;;;3.63;3.10;;;13.00;99.90;;;;;;5047567;28;20476;-72
2021/08/03 00:47:56;;;;;;;2.47;2.33;;;13.00;99.90;;;;;;5048172;28;20186;-70
2021/08/03 00:50:22;;;;;;;2.73;2.40;;;13.20;99.90;;;;;;5033581;28;20191;-71
2021/08/03 00:52:47;;;;;;;2.80;2.60;;;13.10;99.90;;;;;;5048197;28;20193;-70
2021/08/03 00:55:13;;;;;;;2.83;2.33;;;13.10;99.90;;;;;;5046498;28;20525;-70
2021/08/03 00:57:41;;;;;;;3.00;2.67;;;13.10;99.90;;;;;;5043517;28;20241;-70
2021/08/03 01:00:07;;;;;;;2.50;2.30;;;12.70;99.90;;;;;;5037645;28;20175;-71
2021/08/03 01:02:33;;;;;;;2.75;2.55;;;13.10;99.90;;;;;;5045609;28;20443;-72
2021/08/03 01:04:58;;;;;;;2.70;2.43;;;13.00;99.90;;;;;;5040103;28;20238;-70
2021/08/03 01:07:34;;;;;;;2.90;2.20;;;12.60;99.90;;;;;;5041022;28;20199;-70
2021/08/03 01:10:25;;;;;;;2.25;2.10;;;12.90;99.90;;;;;;5037342;28;20264;-70
2021/08/03 01:13:12;;;;;;;2.60;2.40;;;12.90;99.90;;;;;;5048357;28;20640;-71
2021/08/03 01:15:50;;;;;;;2.90;2.70;;;12.90;99.90;;;;;;5042854;28;20197;-72
2021/08/03 01:18:19;;;;;;;2.80;2.60;;;12.70;99.90;;;;;;5041153;28;20190;-73
2021/08/03 01:21:24;;;;;;;2.70;2.50;;;12.80;99.90;;;;;;5048414;28;20198;-71
2021/08/03 01:23:58;;;;;;;2.53;2.40;;;12.70;99.90;;;;;;5048877;28;20194;-71
2021/08/03 01:26:27;;;;;;;3.05;2.20;;;12.70;99.90;;;;;;5042497;28;20722;-71
2021/08/03 01:28:56;;;;;;;2.92;2.72;;;12.70;99.90;;;;;;5040685;28;20194;-72
2021/08/03 01:31:25;;;;;;;4.88;2.60;;;12.80;99.90;;;;;;5042765;28;20262;-71
2021/08/03 01:33:58;;;;;;;2.88;2.67;;;12.80;99.90;;;;;;5045841;28;20676;-71
2021/08/03 01:36:24;;;;;;;3.30;3.00;;;12.60;99.90;;;;;;5038957;28;20236;-70
2021/08/03 01:38:52;;;;;;;3.25;3.05;;;13.00;99.90;;;;;;5049141;28;20437;-72
2021/08/03 01:41:18;;;;;;;6.17;5.67;;;12.60;99.90;;;;;;5037123;28;20191;-72
2021/08/03 01:43:47;;;;;;;2.60;2.40;;;12.90;99.90;;;;;;5042913;28;20895;-72
2021/08/03 01:46:16;;;;;;;3.10;2.60;;;13.00;99.90;;;;;;5042607;28;20312;-71
2021/08/03 01:48:44;;;;;;;2.85;2.55;;;13.00;99.90;;;;;;5043200;28;20440;-73
2021/08/03 01:51:10;;;;;;;2.73;2.57;;;13.10;99.90;;;;;;5037541;28;20347;-70
2021/08/03 01:53:37;;;;;;;3.10;2.90;;;12.90;99.90;;;;;;5043483;28;20987;-71
2021/08/03 01:56:04;;;;;;;2.88;2.67;;;13.20;99.90;;;;;;5044876;28;20191;-74
2021/08/03 01:58:30;;;;;;;2.90;2.70;;;13.00;99.90;;;;;;5038263;28;20191;-72
2021/08/03 02:00:57;;;;;;;2.60;2.40;;;13.10;99.90;;;;;;5036082;28;20468;-72
2021/08/03 02:03:25;;;;;;;3.15;2.92;;;13.00;99.90;;;;;;5046728;28;20673;-71
2021/08/03 02:05:52;;;;;;;3.47;2.90;;;12.90;99.90;;;;;;5036347;28;20226;-71
2021/08/03 02:08:20;;;;;;;3.00;2.70;;;13.20;99.90;;;;;;5040289;28;20202;-71
2021/08/03 02:10:46;;;;;;;2.70;2.47;;;13.00;99.90;;;;;;5040665;28;20586;-72
2021/08/03 02:13:14;;;;;;;2.53;2.33;;;13.10;99.90;;;;;;5039168;28;20633;-71
2021/08/03 02:15:40;;;;;;;3.65;2.65;;;12.90;99.90;;;;;;5038779;28;20436;-72
2021/08/03 02:18:05;;;;;;;3.57;2.47;;;13.00;99.90;;;;;;5038146;28;20194;-72
2021/08/03 02:20:31;;;;;;;3.03;2.40;;;13.20;99.90;;;;;;5039897;28;20439;-72
2021/08/03 02:22:56;;;;;;;2.67;2.47;;;13.10;99.90;;;;;;5039123;28;20209;-72
2021/08/03 02:25:23;;;;;;;3.20;2.53;;;13.10;99.90;;;;;;5037058;28;20697;-71
2021/08/03 02:27:48;;;;;;;3.20;2.88;;;13.00;99.90;;;;;;5042444;28;20781;-73
2021/08/03 02:30:14;;;;;;;4.33;4.03;;;13.00;99.90;;;;;;5040591;28;20214;-72
2021/08/03 02:32:49;;;;;;;5.03;4.63;;;13.10;99.90;;;;;;5037587;28;20285;-72
2021/08/03 02:35:16;;;;;;;5.90;5.40;;;13.10;99.90;;;;;;5035608;28;20181;-71
2021/08/03 02:37:47;;;;;;;6.53;6.03;;;13.10;99.90;;;;;;5037213;28;20213;-73
2021/08/03 02:40:13;;;;;;;8.82;8.13;;;13.10;99.90;;;;;;5041967;28;20551;-71
2021/08/03 02:42:40;;;;;;;5.67;5.17;;;13.10;99.90;;;;;;5041393;28;20194;-72
2021/08/03 02:45:06;;;;;;;4.15;3.85;;;12.90;99.90;;;;;;5037033;28;20637;-73
2021/08/03 02:47:45;;;;;;;3.67;3.47;;;12.90;99.90;;;;;;5038711;28;20186;-71
2021/08/03 02:50:12;;;;;;;3.10;2.90;;;13.00;99.90;;;;;;5038772;28;20435;-73
2021/08/03 02:52:41;;;;;;;3.25;3.05;;;12.80;99.90;;;;;;5040227;28;20243;-72
2021/08/03 02:55:21;;;;;;;3.40;3.20;;;12.80;99.90;;;;;;5037311;28;20187;-71
2021/08/03 02:57:51;;;;;;;3.13;2.90;;;12.70;99.90;;;;;;5037149;28;20197;-72
2021/08/03 03:00:17;;;;;;;2.55;2.38;;;12.40;99.90;;;;;;5037570;28;20202;-71
2021/08/03 03:02:45;;;;;;;2.92;2.72;;;12.60;99.90;;;;;;5040427;28;20192;-71
2021/08/03 03:05:19;;;;;;;3.15;2.50;;;12.50;99.90;;;;;;5040293;28;20665;-73
2021/08/03 03:07:51;;;;;;;2.70;2.50;;;12.60;99.90;;;;;;5033747;28;20193;-74
2021/08/03 03:10:22;;;;;;;2.60;2.40;;;12.30;99.90;;;;;;5040362;28;20671;-73
2021/08/03 03:12:53;;;;;;;3.17;2.72;;;12.20;99.90;;;;;;5039034;28;20217;-71
2021/08/03 03:15:19;;;;;;;3.30;3.00;;;12.50;99.90;;;;;;5040175;28;20269;-72
2021/08/03 03:17:46;;;;;;;2.93;2.70;;;12.30;99.90;;;;;;5036729;28;20278;-71
2021/08/03 03:20:13;;;;;;;2.78;2.50;;;12.30;99.90;;;;;;5034681;28;20817;-73
2021/08/03 03:22:42;;;;;;;2.50;2.30;;;12.10;99.90;;;;;;5037125;28;20200;-71
2021/08/03 03:25:11;;;;;;;2.65;2.42;;;12.40;99.90;;;;;;5041036;28;20218;-71
2021/08/03 03:27:37;;;;;;;2.58;2.38;;;12.00;99.90;;;;;;5040348;28;20534;-73
2021/08/03 03:30:03;;;;;;;2.80;2.45;;;12.00;99.90;;;;;;5037980;28;20230;-71
2021/08/03 03:32:39;;;;;;;2.63;2.42;;;12.10;99.90;;;;;;5039430;28;20190;-72
2021/08/03 03:35:06;;;;;;;2.58;2.38;;;12.40;99.90;;;;;;5039305;28;20823;-73
2021/08/03 03:37:32;;;;;;;3.53;2.80;;;12.00;99.90;;;;;;5041179;28;20217;-73
2021/08/03 03:39:58;;;;;;;3.22;2.95;;;12.30;99.90;;;;;;5038924;28;20194;-71
2021/08/03 03:42:31;;;;;;;2.77;2.57;;;12.30;99.90;;;;;;5038758;28;20201;-72
2021/08/03 03:44:59;;;;;;;2.80;2.60;;;11.80;99.90;;;;;;5038138;28;20210;-73
2021/08/03 03:47:31;;;;;;;3.10;2.90;;;11.80;99.90;;;;;;5037811;28;20573;-74
2021/08/03 03:50:16;;;;;;;2.80;2.60;;;11.90;99.90;;;;;;5034151;28;20257;-73
2021/08/03 03:52:53;;;;;;;2.85;2.53;;;12.20;99.90;;;;;;5037928;28;20194;-72
2021/08/03 03:55:22;;;;;;;4.30;2.40;;;11.80;99.90;;;;;;5039194;28;20195;-71
2021/08/03 03:57:48;;;;;;;2.65;2.45;;;12.20;99.90;;;;;;5041011;28;20225;-72
2021/08/03 04:00:15;;;;;;;2.60;2.50;;;12.00;99.90;;;;;;5035687;28;20194;-71
2021/08/03 04:02:42;;;;;;;4.55;2.55;;;11.60;99.90;;;;;;5035265;28;20203;-71
2021/08/03 04:05:14;;;;;;;3.03;2.83;;;11.60;99.90;;;;;;5038456;28;20237;-71
2021/08/03 04:07:40;;;;;;;3.08;2.60;;;11.60;99.90;;;;;;5037345;28;20642;-71
2021/08/03 04:10:09;;;;;;;4.10;3.80;;;12.10;99.90;;;;;;5040854;28;20269;-74
2021/08/03 04:12:35;;;;;;;2.58;2.42;;;11.60;99.90;;;;;;5037914;28;20490;-71
2021/08/03 04:15:02;;;;;;;2.90;2.70;;;11.90;99.90;;;;;;5036218;28;20554;-71
2021/08/03 04:17:27;;;;;;;2.70;2.50;;;11.80;99.90;;;;;;5035757;28;20433;-71
2021/08/03 04:19:53;;;;;;;2.50;2.30;;;11.90;99.90;;;;;;5044528;28;20276;-71
2021/08/03 04:22:18;;;;;;;3.33;3.10;;;11.90;99.90;;;;;;5039977;28;20198;-73
2021/08/03 04:24:44;;;;;;;2.70;2.50;;;11.90;99.90;;;;;;5044524;28;20222;-72
2021/08/03 04:27:10;;;;;;;3.37;2.90;;;12.20;99.90;;;;;;5039680;28;20734;-72
2021/08/03 04:29:35;;;;;;;2.60;2.40;;;11.70;99.90;;;;;;5041364;28;20224;-72
2021/08/03 04:32:01;;;;;;;2.93;2.73;;;12.20;99.90;;;;;;5047054;28;20214;-71
2021/08/03 04:34:27;;;;;;;2.67;2.28;;;12.00;99.90;;;;;;5040142;28;20253;-73
2021/08/03 04:36:52;;;;;;;3.43;2.77;;;11.90;99.90;;;;;;5038712;28;20654;-72
2021/08/03 04:39:18;;;;;;;4.10;2.90;;;12.00;99.90;;;;;;5042349;28;20180;-73
2021/08/03 04:41:43;;;;;;;3.30;3.00;;;12.20;99.90;;;;;;5051151;28;20270;-70
2021/08/03 04:44:09;;;;;;;4.10;3.33;;;12.20;99.90;;;;;;5042722;28;20182;-70
2021/08/03 04:46:34;;;;;;;3.53;3.23;;;12.10;99.90;;;;;;5037968;28;20553;-70
2021/08/03 04:49:00;;;;;;;2.77;2.57;;;12.50;99.90;;;;;;5040210;28;21014;-72
2021/08/03 04:51:26;;;;;;;3.10;2.40;;;12.60;99.90;;;;;;5046687;28;20219;-72
2021/08/03 04:53:51;;;;;;;2.40;2.20;;;12.10;99.90;;;;;;5041368;28;20635;-70
2021/08/03 04:56:17;;;;;;;2.77;2.57;;;12.70;99.90;;;;;;5038257;28;20282;-71
2021/08/03 04:58:42;;;;;;;2.90;2.70;;;12.60;99.90;;;;;;5041158;28;20250;-70
2021/08/03 05:01:08;;;;;;;3.07;2.87;;;12.50;99.90;;;;;;5043973;28;20607;-71
2021/08/03 05:03:34;;;;;;;3.23;3.03;;;12.70;99.90;;;;;;5043243;28;20203;-71
2021/08/03 05:05:59;;;;;;;2.93;2.70;;;12.70;99.90;;;;;;5040160;28;20299;-70
2021/08/03 05:08:25;;;;;;;3.60;3.20;;;12.70;99.90;;;;;;5040941;28;20543;-71
2021/08/03 05:10:50;;;;;;;3.20;2.90;;;12.70;99.90;;;;;;5038005;28;20190;-70
2021/08/03 05:13:16;;;;;;;2.90;2.70;;;13.20;99.90;;;;;;5040545;28;20171;-72
2021/08/03 05:15:41;;;;;;;4.07;2.77;;;13.00;99.90;;;;;;5040936;28;20221;-72
2021/08/03 05:18:07;;;;;;;4.67;3.10;;;13.10;99.90;;;;;;5039092;28;20181;-74
2021/08/03 05:20:32;;;;;;;3.00;2.80;;;13.20;99.90;;;;;;5043154;28;20198;-72
2021/08/03 05:22:58;;;;;;;2.83;2.57;;;13.00;99.90;;;;;;5049244;28;20237;-73
2021/08/03 05:25:23;;;;;;;2.70;2.50;;;13.50;99.90;;;;;;5031995;28;20222;-72
2021/08/03 05:27:49;;;;;;;2.40;2.20;;;13.20;99.90;;;;;;5040433;28;20186;-72
2021/08/03 05:30:14;;;;;;;2.50;2.30;;;13.30;99.90;;;;;;5039458;28;20700;-73
2021/08/03 05:32:40;;;;;;;2.93;2.73;;;13.20;99.90;;;;;;5036823;28;20181;-71
2021/08/03 05:35:07;;;;;;;3.57;2.97;;;13.20;99.90;;;;;;5037686;28;20203;-73
2021/08/03 05:37:32;;;;;;;2.65;2.45;;;13.30;99.90;;;;;;5041485;28;20469;-74
2021/08/03 05:39:59;;;;;;;3.80;2.60;;;13.30;99.90;;;;;;5048738;28;20222;-71
2021/08/03 05:42:25;;;;;;;2.63;2.43;;;13.50;99.90;;;;;;5045168;28;20198;-73
2021/08/03 05:44:51;;;;;;;2.93;2.70;;;13.90;99.90;;;;;;5045935;28;20481;-71
2021/08/03 05:47:16;;;;;;;3.10;2.87;;;13.80;99.90;;;;;;5039151;28;20776;-72
2021/08/03 05:49:42;;;;;;;3.10;2.80;;;13.80;99.90;;;;;;5039781;28;20217;-71
2021/08/03 05:52:08;;;;;;;2.83;2.50;;;13.90;99.90;;;;;;5039117;28;20193;-71
2021/08/03 05:54:34;;;;;;;2.70;2.50;;;14.00;99.90;;;;;;5042940;28;20436;-72
2021/08/03 05:57:00;;;;;;;3.20;3.00;;;14.20;99.90;;;;;;5037658;28;20187;-72
2021/08/03 05:59:25;;;;;;;2.07;1.97;;;14.30;99.90;;;;;;5037250;28;20438;-74
2021/08/03 06:01:51;;;;;;;3.10;2.90;;;14.40;99.90;;;;;;5044552;28;20196;-71
2021/08/03 06:04:16;;;;;;;4.20;3.90;;;14.40;99.90;;;;;;5041102;28;20271;-73
2021/08/03 06:06:43;;;;;;;3.93;3.13;;;14.60;99.90;;;;;;5040293;28;20544;-72
2021/08/03 06:09:10;;;;;;;3.67;3.10;;;14.60;99.90;;;;;;5039796;28;20186;-73
2021/08/03 06:11:42;;;;;;;2.90;2.70;;;14.70;99.90;;;;;;5040384;28;20445;-73
2021/08/03 06:14:09;;;;;;;2.67;2.47;;;14.90;99.90;;;;;;5042899;28;20899;-73
2021/08/03 06:16:36;;;;;;;2.80;2.60;;;15.40;99.90;;;;;;5039035;28;20528;-72
2021/08/03 06:19:04;;;;;;;2.80;2.60;;;15.60;99.90;;;;;;5040549;28;20430;-73
2021/08/03 06:21:31;;;;;;;2.70;2.50;;;15.60;99.90;;;;;;5043389;28;20437;-73
2021/08/03 06:23:57;;;;;;;6.73;2.87;;;15.90;99.90;;;;;;5041154;28;20447;-75
2021/08/03 06:26:23;;;;;;;2.40;2.20;;;16.20;99.90;;;;;;5038943;28;20568;-76
2021/08/03 06:28:50;;;;;;;1.93;1.83;;;16.10;99.90;;;;;;5044497;28;20437;-74
2021/08/03 06:31:17;;;;;;;2.50;2.30;;;16.40;99.90;;;;;;5039740;28;20805;-73
2021/08/03 06:33:46;;;;;;;2.70;2.50;;;16.50;99.90;;;;;;5043375;28;20433;-76
2021/08/03 06:36:12;;;;;;;2.97;2.47;;;16.60;99.90;;;;;;5034357;28;20430;-72
2021/08/03 06:38:37;;;;;;;4.37;2.80;;;17.10;99.90;;;;;;5037525;28;21004;-73
2021/08/03 06:41:11;;;;;;;2.70;2.50;;;17.00;99.90;;;;;;5035871;28;20183;-72
2021/08/03 06:43:48;;;;;;;2.70;2.50;;;17.30;99.90;;;;;;5035960;28;20199;-75
2021/08/03 06:46:14;;;;;;;2.80;2.60;;;18.00;99.90;;;;;;5037993;28;20488;-73
2021/08/03 06:48:50;;;;;;;2.70;2.60;;;18.10;99.90;;;;;;5039211;28;20429;-72
2021/08/03 06:51:17;;;;;;;5.50;5.20;;;18.40;99.90;;;;;;5040281;28;20634;-73
2021/08/03 06:53:46;;;;;;;3.77;3.30;;;19.00;99.90;;;;;;5042840;28;20875;-73
2021/08/03 06:56:19;;;;;;;4.30;4.00;;;19.00;99.90;;;;;;5039027;28;20422;-72
2021/08/03 06:58:57;;;;;;;3.20;2.90;;;19.30;99.90;;;;;;5036633;28;20917;-72
2021/08/03 07:01:54;;;;;;;2.70;2.50;;;19.10;99.90;;;;;;5042530;28;20437;-73
2021/08/03 07:04:29;;;;;;;5.43;5.13;;;19.20;99.90;;;;;;5040715;28;20995;-74
2021/08/03 07:06:58;;;;;;;4.10;3.87;;;18.80;99.90;;;;;;5039241;28;20831;-74
2021/08/03 07:09:32;;;;;;;3.47;3.00;;;18.70;99.20;;;;;;5036637;28;20424;-74
2021/08/03 07:11:57;;;;;;;3.00;2.80;;;19.20;99.90;;;;;;5045861;28;20454;-75
2021/08/03 07:14:24;;;;;;;3.30;3.00;;;19.30;99.90;;;;;;5039056;28;20455;-72
2021/08/03 07:16:54;;;;;;;2.47;1.90;;;19.70;99.90;;;;;;5041507;28;20194;-71
2021/08/03 07:19:23;;;;;;;2.67;2.50;;;19.60;99.90;;;;;;5044046;28;20448;-74
2021/08/03 07:21:50;;;;;;;2.80;2.60;;;20.10;99.90;;;;;;5045727;28;20452;-73
2021/08/03 07:24:17;;;;;;;2.60;1.97;;;20.50;99.10;;;;;;5044168;28;20440;-73
2021/08/03 07:26:43;;;;;;;2.37;2.23;;;20.30;96.80;;;;;;5042873;28;20432;-73
2021/08/03 07:29:08;;;;;;;2.13;1.73;;;20.70;93.80;;;;;;5040827;28;20816;-73
2021/08/03 07:31:36;;;;;;;2.27;2.17;;;20.90;92.50;;;;;;5036277;28;20468;-73
2021/08/03 07:34:03;;;;;;;2.23;1.90;;;20.80;90.80;;;;;;5046195;28;20722;-73
2021/08/03 07:36:29;;;;;;;2.07;1.80;;;20.90;88.10;;;;;;5041087;28;20449;-72
2021/08/03 07:38:58;;;;;;;2.93;2.10;;;20.90;85.60;;;;;;5048412;28;21037;-74
2021/08/03 07:41:25;;;;;;;2.47;2.07;;;21.10;87.40;;;;;;5039382;28;20232;-73
2021/08/03 07:43:52;;;;;;;1.80;1.70;;;20.90;83.10;;;;;;5046063;28;20441;-72
2021/08/03 07:46:18;;;;;;;2.17;2.07;;;21.10;85.00;;;;;;5036949;28;20507;-73
2021/08/03 07:48:50;;;;;;;2.80;2.03;;;21.10;86.90;;;;;;5043118;28;20772;-73
2021/08/03 07:51:17;;;;;;;2.33;1.87;;;21.30;87.80;;;;;;5042403;28;20664;-73
2021/08/03 07:53:42;;;;;;;2.03;1.93;;;21.40;84.50;;;;;;5042016;28;20444;-73
2021/08/03 07:56:09;;;;;;;1.87;1.77;;;21.90;85.00;;;;;;5042266;28;20444;-73
2021/08/03 07:58:34;;;;;;;2.20;2.03;;;22.10;81.50;;;;;;5050856;28;20448;-73
2021/08/03 08:01:00;;;;;;;2.53;2.20;;;22.50;79.70;;;;;;5044506;28;20437;-75
2021/08/03 08:03:26;;;;;;;2.00;1.90;;;22.60;75.90;;;;;;5043432;28;20574;-73
2021/08/03 08:05:51;;;;;;;2.93;2.73;;;22.20;73.30;;;;;;5051067;28;20210;-72
2021/08/03 08:08:17;;;;;;;1.87;1.77;;;22.70;72.70;;;;;;5053148;28;20449;-73
2021/08/03 08:10:42;;;;;;;2.00;1.80;;;22.60;73.60;;;;;;5045691;28;20183;-73
2021/08/03 08:13:08;;;;;;;3.23;2.10;;;22.40;72.30;;;;;;5049582;28;20248;-72
2021/08/03 08:15:45;;;;;;;2.10;1.97;;;22.60;71.40;;;;;;5048374;28;20652;-72
2021/08/03 08:18:11;;;;;;;1.70;1.60;;;22.60;70.70;;;;;;5039454;28;20212;-72
2021/08/03 08:20:41;;;;;;;2.00;1.90;;;22.60;70.30;;;;;;5052813;28;20440;-72
2021/08/03 08:23:08;;;;;;;1.80;1.70;;;22.60;68.40;;;;;;5042978;28;20555;-73
2021/08/03 08:25:33;;;;;;;2.90;2.20;;;22.70;69.70;;;;;;5048771;28;20555;-72
2021/08/03 08:27:59;;;;;;;2.87;2.47;;;22.30;68.80;;;;;;5048068;28;20516;-73
2021/08/03 08:30:25;;;;;;;3.20;2.83;;;22.50;69.30;;;;;;5042210;28;20573;-75
2021/08/03 08:32:50;;;;;;;2.20;2.07;;;22.30;69.70;;;;;;5042660;28;20858;-74
2021/08/03 08:35:16;;;;;;;2.10;2.00;;;22.20;68.20;;;;;;5047606;28;20184;-75
2021/08/03 08:37:42;;;;;;;2.10;2.00;;;22.00;68.60;;;;;;5047127;28;20278;-73
2021/08/03 08:40:09;;;;;;;2.20;2.00;;;22.00;70.10;;;;;;5048706;28;20178;-75
2021/08/03 08:42:35;;;;;;;2.70;1.80;;;22.40;70.30;;;;;;5043298;28;20184;-71
2021/08/03 08:45:03;;;;;;;2.60;2.40;;;22.40;70.40;;;;;;5041070;28;20504;-73
2021/08/03 08:47:29;;;;;;;3.37;2.87;;;22.70;69.90;;;;;;5047016;28;20955;-73
2021/08/03 08:50:02;;;;;;;2.30;2.00;;;22.80;69.10;;;;;;5043752;28;20438;-74
2021/08/03 08:52:28;;;;;;;3.17;2.10;;;22.80;65.70;;;;;;5048223;28;20438;-71
2021/08/03 08:54:53;;;;;;;3.20;2.03;;;23.40;66.70;;;;;;5045732;28;20436;-74
2021/08/03 08:57:19;;;;;;;2.63;2.27;;;23.60;67.80;;;;;;5048121;28;20200;-72
2021/08/03 08:59:44;;;;;;;2.20;2.10;;;23.50;67.50;;;;;;5051892;28;20245;-75
2021/08/03 09:02:10;;;;;;;4.13;2.30;;;23.90;66.70;;;;;;5042766;28;20193;-73
2021/08/03 09:04:42;;;;;;;2.20;2.10;;;24.10;63.70;;;;;;5040389;28;20217;-72
2021/08/03 09:07:09;;;;;;;1.90;1.80;;;24.40;62.70;;;;;;5049919;28;20217;-74
2021/08/03 09:09:45;;;;;;;2.23;1.50;;;24.30;61.30;;;;;;5050977;28;20423;-73
2021/08/03 09:12:13;;;;;;;2.37;2.20;;;24.40;60.60;;;;;;5039851;28;20444;-74
2021/08/03 09:14:41;;;;;;;2.17;2.07;;;24.30;59.50;;;;;;5046048;28;20919;-73
2021/08/03 09:17:08;;;;;;;3.50;1.97;;;24.00;60.20;;;;;;5040719;28;20443;-74
2021/08/03 09:19:42;;;;;;;2.10;2.00;;;23.60;61.00;;;;;;5043242;28;20437;-72
2021/08/03 09:22:20;;;;;;;3.00;2.37;;;23.40;62.10;;;;;;5044001;28;20433;-74
2021/08/03 09:24:49;;;;;;;2.20;2.00;;;22.50;64.50;;;;;;5043869;28;20469;-71
2021/08/03 09:27:37;;;;;;;2.17;2.07;;;22.20;67.20;;;;;;5048814;28;20458;-75
2021/08/03 09:30:04;;;;;;;2.83;1.97;;;21.70;69.60;;;;;;5036477;28;20465;-72
2021/08/03 09:32:32;;;;;;;1.70;1.60;;;21.30;71.80;;;;;;5042871;28;20586;-74
2021/08/03 09:35:16;;;;;;;2.20;2.10;;;20.90;73.80;;;;;;5040875;28;20426;-72
2021/08/03 09:37:43;;;;;;;2.13;2.03;;;20.70;76.10;;;;;;5038192;28;20452;-73
2021/08/03 09:40:22;;;;;;;2.03;1.90;;;20.50;77.80;;;;;;5040003;28;20442;-73
2021/08/03 09:43:09;;;;;;;2.37;2.17;;;19.90;79.50;;;;;;5042057;28;20548;-71
2021/08/03 09:45:54;;;;;;;2.37;2.27;;;19.60;81.40;;;;;;5036968;28;20468;-72
2021/08/03 09:48:22;;;;;;;2.30;2.20;;;19.20;84.50;;;;;;5038354;28;20843;-71
2021/08/03 09:51:06;;;;;;;2.67;2.47;;;19.50;89.20;;;;;;5049250;28;20530;-71
2021/08/03 09:53:49;;;;;;;2.97;2.77;;;19.10;90.70;;;;;;5043024;28;20436;-71
2021/08/03 09:56:28;;;;;;;2.73;2.53;;;19.10;92.60;;;;;;5048890;28;20436;-73
2021/08/03 09:59:02;;;;;;;2.50;2.40;;;19.10;94.10;;;;;;5036828;28;20990;-74
2021/08/03 10:01:29;;;;;;;2.57;2.43;;;18.80;96.00;;;;;;5046754;28;20422;-72
2021/08/03 10:03:58;;;;;;;2.70;2.50;;;18.60;97.80;;;;;;5046638;28;20804;-71
2021/08/03 10:06:23;;;;;;;2.50;2.30;;;18.30;99.30;;;;;;5047243;28;20470;-71
2021/08/03 10:08:51;;;;;;;2.53;2.40;;;18.40;99.90;;;;;;5039336;28;20465;-71
2021/08/03 10:11:17;;;;;;;2.70;2.50;;;18.60;99.90;;;;;;5041340;28;20221;-74
2021/08/03 10:13:44;;;;;;;3.07;2.87;;;18.70;99.90;;;;;;5048496;28;20852;-73
2021/08/03 10:16:10;;;;;;;3.23;2.90;;;18.90;99.90;;;;;;5042627;28;20495;-74
2021/08/03 10:18:41;;;;;;;2.57;2.30;;;18.70;99.90;;;;;;5048950;28;20944;-72
2021/08/03 10:21:15;;;;;;;3.20;2.57;;;19.00;99.90;;;;;;5039807;28;20948;-72
2021/08/03 10:23:41;;;;;;;3.50;3.20;;;18.90;99.90;;;;;;5047996;28;20448;-71
2021/08/03 10:26:15;;;;;;;3.40;2.50;;;18.70;99.90;;;;;;5040033;28;20470;-71
2021/08/03 10:28:41;;;;;;;2.63;2.47;;;18.70;99.90;;;;;;5051011;28;20901;-71
2021/08/03 10:31:39;;;;;;;3.73;2.90;;;18.60;99.90;;;;;;5040746;28;20546;-72
2021/08/03 10:34:06;;;;;;;2.87;2.67;;;18.70;99.90;;;;;;5036389;28;20489;-73
2021/08/03 10:36:39;;;;;;;4.70;2.80;;;18.60;99.90;;;;;;5047418;28;20442;-71
2021/08/03 10:39:15;;;;;;;3.23;2.90;;;18.30;99.90;;;;;;5039220;28;20465;-72
2021/08/03 10:42:05;;;;;;;3.07;2.87;;;18.90;99.90;;;;;;5039784;28;20442;-74
2021/08/03 10:44:49;;;;;;;2.67;2.47;;;19.30;99.90;;;;;;5049187;28;20444;-73
2021/08/03 10:47:39;;;;;;;2.70;2.50;;;19.60;99.90;;;;;;5047125;28;20442;-73
2021/08/03 10:50:14;;;;;;;2.83;2.63;;;20.10;99.90;;;;;;5023441;28;20526;-73
2021/08/03 10:52:45;;;;;;;3.23;2.50;;;20.00;99.90;;;;;;5045899;28;20844;-73
2021/08/03 10:55:57;;;;;;;2.90;2.70;;;19.80;99.90;;;;;;5040404;28;20515;-72
2021/08/03 10:58:23;;;;;;;2.47;2.20;;;20.00;99.90;;;;;;4996386;28;20513;-73
2021/08/03 11:00:53;;;;;;;3.03;2.80;;;19.40;99.90;;;;;;5044290;28;20766;-71
2021/08/03 11:03:39;;;;;;;3.57;3.37;;;19.60;99.90;;;;;;5037863;28;20442;-72
2021/08/03 11:06:11;;;;;;;3.40;3.20;;;19.30;99.90;;;;;;5034857;28;20467;-72
2021/08/03 11:08:43;;;;;;;3.37;2.93;;;19.70;99.90;;;;;;5046838;28;20461;-72
2021/08/03 11:11:11;;;;;;;3.00;2.80;;;20.10;99.90;;;;;;5037040;28;20594;-70
2021/08/03 11:13:38;;;;;;;2.33;2.23;;;20.00;99.90;;;;;;5043652;28;21405;-71
2021/08/03 11:16:04;;;;;;;3.10;2.37;;;19.90;99.90;;;;;;5044333;28;20837;-71
2021/08/03 11:18:44;;;;;;;2.80;2.60;;;20.00;99.90;;;;;;5045622;28;20440;-70
2021/08/03 11:21:11;;;;;;;2.10;2.00;;;20.80;99.90;;;;;;5045745;28;20476;-69
2021/08/03 11:24:02;;;;;;;2.60;2.40;;;21.30;99.90;;;;;;5044819;28;20855;-71
2021/08/03 11:26:40;;;;;;;2.13;2.00;;;21.50;99.90;;;;;;5046839;28;20567;-70
2021/08/03 11:29:13;;;;;;;2.50;2.40;;;22.10;97.20;;;;;;5037432;28;20935;-71
2021/08/03 11:31:51;;;;;;;2.00;1.90;;;22.50;95.40;;;;;;5040172;28;20427;-70
2021/08/03 11:34:23;;;;;;;3.00;2.10;;;22.80;92.10;;;;;;5043484;28;20425;-72
2021/08/03 11:39:24;;;;;;;2.03;1.83;;;25.20;89.50;;;;;;5055272;28;20968;-81
2021/08/03 11:41:51;;;;;;;2.83;2.00;;;25.30;75.20;;;;;;5065330;28;20956;-80
2021/08/03 11:44:17;;;;;;;1.67;1.57;;;25.60;69.60;;;;;;5063513;28;20440;-81
2021/08/03 11:46:44;;;;;;;2.53;1.97;;;25.60;72.00;;;;;;5064209;28;20566;-80
2021/08/03 11:49:10;;;;;;;2.20;2.00;;;25.20;71.70;;;;;;5060309;28;21055;-78
2021/08/03 11:51:43;;;;;;;2.07;1.93;;;25.20;71.60;;;;;;5063237;28;20433;-80
2021/08/03 11:54:11;;;;;;;2.20;2.00;;;25.00;69.50;;;;;;5063693;28;20643;-81
2021/08/03 11:56:37;;;;;;;2.17;2.07;;;24.10;67.60;;;;;;5062090;28;20436;-80
2021/08/03 11:59:02;;;;;;;2.23;2.13;;;23.80;68.90;;;;;;5059109;28;20495;-80
2021/08/03 12:01:48;;;;;;;2.00;1.90;;;23.40;70.60;;;;;;5065397;28;20198;-80
2021/08/03 12:04:15;;;;;;;1.97;1.87;;;23.10;73.20;;;;;;5063624;28;20198;-79
2021/08/03 12:06:42;;;;;;;4.07;2.00;;;22.70;75.00;;;;;;5055554;28;20474;-81
2021/08/03 12:09:08;;;;;;;2.10;2.00;;;22.50;76.90;;;;;;5059349;28;20425;-81
2021/08/03 12:11:34;;;;;;;1.80;1.70;;;22.00;75.40;;;;;;5057360;28;20810;-78
2021/08/03 12:14:17;;;;;;;2.00;1.90;;;22.00;75.40;;;;;;5054167;28;20942;-79
2021/08/03 12:16:43;;;;;;;2.40;2.20;;;21.70;76.90;;;;;;5059703;28;20529;-81
2021/08/03 12:19:31;;;;;;;1.80;1.70;;;21.40;77.90;;;;;;5061324;28;20462;-78
2021/08/03 12:21:58;;;;;;;1.90;1.80;;;21.90;75.90;;;;;;5056955;28;20967;-79
2021/08/03 12:24:23;;;;;;;2.00;1.90;;;22.00;75.70;;;;;;5057058;28;20467;-79
2021/08/03 12:27:09;;;;;;;1.97;1.87;;;22.30;74.20;;;;;;5062782;28;20626;-77
2021/08/03 12:29:35;;;;;;;1.80;1.70;;;22.10;74.30;;;;;;5057248;28;20186;-78
2021/08/03 12:32:00;;;;;;;1.90;1.80;;;22.30;74.40;;;;;;5063589;28;20435;-77
2021/08/03 12:34:35;;;;;;;1.53;1.43;;;22.00;72.40;;;;;;5056736;28;20182;-78
2021/08/03 12:37:01;;;;;;;1.60;1.50;;;22.00;72.40;;;;;;5044209;28;20213;-77
2021/08/03 12:39:37;;;;;;;1.67;1.57;;;22.00;72.70;;;;;;5054446;28;20531;-77
2021/08/03 12:44:47;;;;;;;1.60;1.50;;;22.30;74.10;;;;;;5057300;28;20974;-77
2021/08/03 12:47:18;;;;;;;2.30;1.80;;;22.70;74.80;;;;;;5058750;28;20451;-77
2021/08/03 12:49:47;;;;;;;1.43;1.33;;;23.10;75.80;;;;;;5059007;28;20437;-77
2021/08/03 12:52:18;;;;;;;1.60;1.50;;;23.70;68.60;;;;;;5055744;28;21368;-76
2021/08/03 12:55:02;;;;;;;2.00;1.40;;;24.70;66.70;;;;;;5055612;28;20451;-76
2021/08/03 12:58:00;;;;;;;1.30;1.30;;;26.50;64.20;;;;;;5049071;28;20949;-78
2021/08/03 13:00:29;;;;;;;1.27;1.20;;;28.90;55.80;;;;;;5011380;28;20451;-76
2021/08/03 13:02:56;;;;;;;1.20;1.20;;;30.80;50.70;;;;;;5053374;28;20627;-76
2021/08/03 13:05:22;;;;;;;1.10;1.10;;;32.30;45.80;;;;;;5051426;28;20470;-75